Stations météo

Publicité
Isola Di Salina, Italie (16415): Température de l'air: 16.11.2017 22:00:00 - 22.11.2017 22:00:00 (CET)Isola Di Salina, Italie (16415): Vitesse du vent: 16.11.2017 22:00:00 - 22.11.2017 22:00:00 (CET)Isola Di Salina, Italie (16415): Direction du vent: 16.11.2017 22:00:00 - 22.11.2017 22:00:00 (CET)Isola Di Salina, Italie (16415): reduced air pressure: 16.11.2017 22:00:00 - 22.11.2017 22:00:00 (CET)Isola Di Salina, Italie (16415): Quantités de précipitations: 16.11.2017 22:00:00 - 22.11.2017 22:00:00 (CET)
Date & Time tt [°C] ff [km/h] ff [knt] dd ppp [hPa] rr [mm]
22.11.2017 22:00:00 12,0 2 1 SSW 1021,6 -
22.11.2017 21:00:00 12,2 2 1 S 1021,7 -
22.11.2017 20:00:00 12,6 4 2 SW 1021,4 -
22.11.2017 19:00:00 12,4 2 1 SSW 1021,4 0,0
22.11.2017 18:00:00 13,0 2 1 W 1021,4 -
22.11.2017 17:00:00 13,8 8 4 W 1021,3 -
22.11.2017 16:00:00 14,6 5 3 W 1021,3 -
22.11.2017 15:00:00 15,5 8 4 W 1021,2 -
22.11.2017 14:00:00 15,8 8 4 WNW 1021,1 -
22.11.2017 13:00:00 15,9 2 1 ENE 1021,4 0,0
22.11.2017 12:00:00 15,9 2 1 W 1021,8 -
22.11.2017 11:00:00 17,3 4 2 W 1022,2 -
22.11.2017 10:00:00 15,5 9 5 WNW 1022,0 -
22.11.2017 09:00:00 14,9 9 5 W 1022,1 -
22.11.2017 08:00:00 14,2 8 4 WSW 1021,9 -
22.11.2017 07:00:00 13,6 11 6 WSW 1021,4 -
22.11.2017 06:00:00 13,5 15 8 W 1021,1 -
22.11.2017 05:00:00 14,1 11 6 W 1021,3 -
22.11.2017 04:00:00 14,3 13 7 W 1021,2 -
22.11.2017 03:00:00 14,0 11 6 W 1021,4 -
22.11.2017 02:00:00 13,8 9 5 W 1021,4 -
22.11.2017 01:00:00 14,4 9 5 W 1021,0 -
22.11.2017 00:00:00 14,4 9 5 W 1021,1 -
21.11.2017 23:00:00 14,2 13 7 W 1021,0 -
21.11.2017 22:00:00 14,2 9 5 W 1021,0 -
21.11.2017 21:00:00 14,1 9 5 W 1021,1 -
21.11.2017 20:00:00 14,2 8 4 WSW 1021,1 -
21.11.2017 19:00:00 14,1 5 3 WSW 1021,2 -
21.11.2017 18:00:00 14,4 5 3 WSW 1020,9 -
21.11.2017 17:00:00 14,6 4 2 SSW 1020,8 -
21.11.2017 16:00:00 14,2 5 3 NNW 1020,7 -
21.11.2017 15:00:00 16,5 2 1 NNE 1020,3 -
21.11.2017 14:00:00 16,1 4 2 N 1020,5 -
21.11.2017 13:00:00 15,8 8 4 SE 1020,8 0,0
21.11.2017 12:00:00 16,7 15 8 SSE 1021,6 -
21.11.2017 11:00:00 16,8 16 9 S 1022,1 -
21.11.2017 10:00:00 16,1 13 7 SSE 1022,2 -
21.11.2017 09:00:00 14,8 11 6 SSE 1022,0 -
21.11.2017 08:00:00 13,0 8 4 S 1022,1 -
21.11.2017 07:00:00 10,9 8 4 S 1021,6 0,0
21.11.2017 06:00:00 9,9 2 1 WSW 1021,6 -
21.11.2017 05:00:00 10,2 5 3 SSW 1021,4 -
21.11.2017 04:00:00 10,2 5 3 S 1021,8 -
21.11.2017 03:00:00 9,7 4 2 S 1022,2 -
21.11.2017 02:00:00 10,3 4 2 S 1022,3 -
21.11.2017 01:00:00 9,8 0 0 N 1022,4 0,0
21.11.2017 00:00:00 9,9 4 2 SW 1022,6 -
20.11.2017 23:00:00 10,5 2 1 SW 1022,5 -
20.11.2017 22:00:00 10,7 4 2 SW 1022,4 -
20.11.2017 21:00:00 10,9 8 4 W 1022,4 -
20.11.2017 20:00:00 11,3 11 6 WNW 1022,3 -
20.11.2017 19:00:00 11,4 11 6 NW 1021,9 0,0
20.11.2017 18:00:00 12,1 5 3 WNW 1021,5 -
20.11.2017 17:00:00 12,9 16 9 NNW 1021,0 -
20.11.2017 16:00:00 13,2 21 11 NNW 1020,5 -
20.11.2017 15:00:00 14,1 18 10 NNW 1020,4 -
20.11.2017 14:00:00 15,4 16 9 NNW 1020,0 -
20.11.2017 13:00:00 15,9 16 9 NNW 1019,8 0,0
20.11.2017 12:00:00 15,8 18 10 N 1019,8 -
20.11.2017 11:00:00 14,9 26 14 NNW 1019,6 -
20.11.2017 10:00:00 14,7 37 20 NNW 1018,8 -
20.11.2017 09:00:00 14,6 31 17 N 1017,8 -
20.11.2017 08:00:00 14,4 24 13 NW 1017,3 -
20.11.2017 07:00:00 14,2 26 14 NNW 1016,6 -
20.11.2017 06:00:00 14,3 35 19 NNW 1015,7 -
20.11.2017 05:00:00 14,1 28 15 NNW 1015,3 -
20.11.2017 04:00:00 13,2 15 8 NW 1014,8 -
20.11.2017 03:00:00 13,4 9 5 W 1014,9 -
20.11.2017 02:00:00 13,1 11 6 NW 1015,0 -
20.11.2017 01:00:00 13,4 13 7 NNW 1015,4 -
20.11.2017 00:00:00 14,4 16 9 WNW 1015,4 -
19.11.2017 23:00:00 14,5 11 6 W 1015,5 -
19.11.2017 22:00:00 14,5 15 8 NW 1015,3 -
19.11.2017 21:00:00 14,4 16 9 NW 1015,0 -
19.11.2017 20:00:00 14,1 13 7 WNW 1014,7 -
19.11.2017 19:00:00 14,1 16 9 WNW 1014,5 -
19.11.2017 18:00:00 14,3 26 14 NW 1014,2 -
19.11.2017 17:00:00 14,2 18 10 WNW 1014,1 -
19.11.2017 16:00:00 14,1 21 11 WNW 1014,3 -
19.11.2017 15:00:00 14,4 22 12 WNW 1014,3 -
19.11.2017 14:00:00 14,4 24 13 WNW 1014,3 -
19.11.2017 13:00:00 14,3 28 15 NW 1014,1 -
19.11.2017 12:00:00 13,8 21 11 WNW 1014,2 -
19.11.2017 11:00:00 14,8 15 8 WNW 1014,5 -
19.11.2017 10:00:00 14,0 9 5 WNW 1014,9 -
19.11.2017 09:00:00 14,0 18 10 W 1014,7 -
19.11.2017 08:00:00 13,1 16 9 WNW 1014,0 -
19.11.2017 07:00:00 13,4 16 9 WNW 1013,6 -
19.11.2017 06:00:00 12,9 15 8 W 1013,2 -
19.11.2017 05:00:00 13,8 15 8 WNW 1013,5 -
19.11.2017 04:00:00 14,2 22 12 NW 1013,0 -
19.11.2017 03:00:00 13,9 15 8 WNW 1013,5 -
19.11.2017 02:00:00 13,8 22 12 WNW 1013,6 -
19.11.2017 01:00:00 13,7 16 9 W 1013,8 -
19.11.2017 00:00:00 13,5 15 8 WNW 1014,0 -
18.11.2017 23:00:00 13,6 11 6 WSW 1014,2 -
18.11.2017 22:00:00 13,5 13 7 NW 1014,2 -
18.11.2017 21:00:00 13,3 13 7 W 1014,1 -
18.11.2017 20:00:00 14,3 11 6 W 1013,6 -
18.11.2017 19:00:00 14,4 13 7 W 1013,7 0,0
18.11.2017 18:00:00 14,6 8 4 NW 1013,5 -
18.11.2017 17:00:00 14,3 11 6 W 1013,4 -
18.11.2017 16:00:00 14,9 9 5 WNW 1013,2 -
18.11.2017 15:00:00 15,3 15 8 NW 1013,2 -
18.11.2017 14:00:00 15,4 18 10 NNW 1013,3 -
18.11.2017 13:00:00 15,5 21 11 NW 1013,6 0,0
18.11.2017 12:00:00 15,9 26 14 NNW 1013,7 -
18.11.2017 11:00:00 16,0 24 13 NNW 1013,9 -
18.11.2017 10:00:00 16,0 24 13 NW 1013,7 -
18.11.2017 09:00:00 15,4 21 11 NW 1013,6 -
18.11.2017 08:00:00 14,8 28 15 NNW 1013,0 -
18.11.2017 07:00:00 14,6 31 17 NNW 1012,5 0,0
18.11.2017 06:00:00 14,6 22 12 NW 1012,4 -
18.11.2017 05:00:00 14,6 26 14 NNW 1012,3 -
18.11.2017 04:00:00 14,7 29 16 NNW 1012,3 -
18.11.2017 03:00:00 14,6 26 14 NNW 1012,4 -
18.11.2017 02:00:00 15,0 13 7 NNW 1012,6 -
18.11.2017 01:00:00 15,4 9 5 N 1012,7 0,0
18.11.2017 00:00:00 15,0 11 6 NNW 1012,7 -
17.11.2017 23:00:00 14,9 15 8 N 1012,6 -
17.11.2017 22:00:00 14,8 5 3 SSW 1012,8 -
17.11.2017 21:00:00 15,0 8 4 NNW 1012,5 -
17.11.2017 20:00:00 15,2 9 5 N 1012,1 -
17.11.2017 19:00:00 15,4 11 6 E 1011,7 0,0
17.11.2017 18:00:00 15,7 15 8 N 1011,2 -
17.11.2017 17:00:00 15,8 16 9 N 1010,9 -
17.11.2017 16:00:00 15,9 15 8 N 1011,0 -
17.11.2017 15:00:00 15,8 21 11 N 1010,5 -
17.11.2017 14:00:00 15,7 26 14 NNW 1010,4 -
17.11.2017 13:00:00 15,7 29 16 N 1010,5 0,0
17.11.2017 12:00:00 16,0 16 9 NNW 1010,9 -
17.11.2017 11:00:00 15,4 11 6 NNW 1011,4 -
17.11.2017 10:00:00 15,5 11 6 W 1011,3 -
17.11.2017 09:00:00 14,2 13 7 NW 1011,1 -
17.11.2017 08:00:00 13,9 13 7 NNW 1010,9 -
17.11.2017 07:00:00 13,5 9 5 N 1010,5 -
17.11.2017 06:00:00 13,2 4 2 NE 1010,3 -
17.11.2017 05:00:00 13,0 8 4 NNW 1010,1 -
17.11.2017 04:00:00 12,9 9 5 NNW 1009,9 -
17.11.2017 03:00:00 12,6 5 3 WNW 1010,1 -
17.11.2017 02:00:00 12,8 8 4 W 1010,1 -
17.11.2017 01:00:00 12,5 8 4 W 1010,3 -
17.11.2017 00:00:00 11,7 5 3 W 1010,2 -
16.11.2017 23:00:00 12,1 0 0 N 1010,1 -
16.11.2017 22:00:00 12,2 5 3 S 1010,3 -

tt = Température de l'air
ff = Vitesse du vent
dd = Direction du vent
ppp = reduced air pressure
rr = Quantités de précipitations

stations d'obs. à proximité